createdAt,value
2023-05-21T00:01:48.696Z,11.49
2023-05-21T00:08:37.812Z,11.48
2023-05-21T00:11:07.526Z,11.67
2023-05-21T00:13:36.825Z,11.23
2023-05-21T00:16:05.959Z,11.42
2023-05-21T00:18:35.216Z,11.28
2023-05-21T00:21:04.293Z,11.52
2023-05-21T00:23:34.629Z,11.37
2023-05-21T00:26:05.270Z,11.27
2023-05-21T00:28:34.354Z,11.34
2023-05-21T00:31:03.547Z,11.11
2023-05-21T00:33:32.641Z,11.04
2023-05-21T00:36:02.554Z,10.99
2023-05-21T00:38:33.475Z,11.10
2023-05-21T00:41:04.738Z,10.90
2023-05-21T00:43:34.452Z,10.89
2023-05-21T00:50:24.657Z,10.83
2023-05-21T00:52:54.782Z,10.74
2023-05-21T00:59:44.170Z,10.47
2023-05-21T01:02:14.618Z,10.42
2023-05-21T01:09:03.890Z,10.38
2023-05-21T01:11:40.871Z,10.37
2023-05-21T01:14:10.577Z,10.64
2023-05-21T01:21:07.781Z,10.40
2023-05-21T01:23:38.581Z,10.29
2023-05-21T01:30:26.952Z,10.07
2023-05-21T01:32:59.019Z,10.11
2023-05-21T01:39:42.490Z,10.28
2023-05-21T01:46:32.727Z,9.97
2023-05-21T01:49:02.096Z,9.99
2023-05-21T01:56:04.184Z,9.86
2023-05-21T01:58:33.383Z,9.89
2023-05-21T02:05:15.101Z,9.74
2023-05-21T02:07:45.727Z,9.83
2023-05-21T02:10:15.129Z,9.79
2023-05-21T02:16:58.483Z,9.98
2023-05-21T02:19:27.841Z,9.70
2023-05-21T02:26:08.679Z,9.75
2023-05-21T02:28:37.982Z,9.70
2023-05-21T02:35:15.494Z,9.95
2023-05-21T02:41:56.800Z,9.47
2023-05-21T02:44:26.302Z,9.50
2023-05-21T02:51:09.346Z,9.30
2023-05-21T02:53:38.745Z,9.28
2023-05-21T02:56:08.148Z,9.34
2023-05-21T02:58:37.355Z,9.26
2023-05-21T03:01:06.666Z,9.57
2023-05-21T03:03:35.901Z,9.51
2023-05-21T03:06:05.238Z,9.64
2023-05-21T03:08:37.743Z,9.77
2023-05-21T03:11:07.117Z,9.87
2023-05-21T03:13:36.352Z,9.71
2023-05-21T03:16:05.820Z,9.68
2023-05-21T03:18:34.907Z,9.71
2023-05-21T03:21:04.923Z,9.71
2023-05-21T03:23:35.452Z,9.74
2023-05-21T03:26:05.162Z,9.68
2023-05-21T03:32:53.083Z,9.84
2023-05-21T03:35:22.137Z,9.98
2023-05-21T03:42:11.312Z,10.05
2023-05-21T03:44:40.624Z,10.19
2023-05-21T03:51:27.799Z,10.26
2023-05-21T03:58:16.322Z,10.39
2023-05-21T04:00:45.925Z,10.60
2023-05-21T04:07:34.094Z,10.86
2023-05-21T04:10:04.209Z,11.08
2023-05-21T04:16:54.427Z,11.00
2023-05-21T04:28:13.132Z,12.07
2023-05-21T04:30:42.117Z,12.32
2023-05-21T04:37:31.923Z,12.75
2023-05-21T04:40:01.972Z,13.04
2023-05-21T04:42:31.033Z,13.21
2023-05-21T04:45:00.440Z,13.39
2023-05-21T04:47:30.806Z,13.41
2023-05-21T04:54:20.158Z,14.57
2023-05-21T04:56:49.350Z,15.39
2023-05-21T05:03:42.774Z,16.43
2023-05-21T05:06:12.247Z,17.29
2023-05-21T05:12:55.601Z,18.10
2023-05-21T05:15:24.894Z,18.00
2023-05-21T05:17:55.064Z,18.23
2023-05-21T05:29:20.893Z,19.87
2023-05-21T05:31:50.084Z,19.77
2023-05-21T05:38:32.114Z,20.47
2023-05-21T05:41:01.405Z,20.86
2023-05-21T05:43:30.500Z,21.29
2023-05-21T05:46:01.383Z,21.66
2023-05-21T05:48:31.457Z,22.44
2023-05-21T05:51:00.554Z,22.59
2023-05-21T05:53:29.947Z,22.98
2023-05-21T06:00:14.537Z,22.22
2023-05-21T06:02:45.218Z,22.12
2023-05-21T06:09:27.079Z,21.81
2023-05-21T06:11:56.576Z,21.88
2023-05-21T06:14:25.795Z,21.48
2023-05-21T06:16:55.074Z,21.16
2023-05-21T06:19:26.128Z,20.56
2023-05-21T06:21:56.621Z,20.75
2023-05-21T06:24:26.144Z,21.62
2023-05-21T06:26:55.546Z,21.05
2023-05-21T06:29:25.153Z,20.96
2023-05-21T06:36:08.816Z,21.48
2023-05-21T06:38:38.425Z,21.43
2023-05-21T06:45:26.293Z,22.26
2023-05-21T06:47:55.795Z,21.88
2023-05-21T06:54:45.587Z,21.15
2023-05-21T06:57:16.734Z,21.07
2023-05-21T06:59:46.245Z,21.40
2023-05-21T07:02:17.281Z,21.44
2023-05-21T07:04:46.985Z,21.72
2023-05-21T07:11:30.429Z,20.85
2023-05-21T07:14:01.164Z,21.10
2023-05-21T07:20:42.057Z,21.28
2023-05-21T07:23:11.354Z,21.34
2023-05-21T07:25:40.758Z,22.26
2023-05-21T07:28:11.597Z,22.02
2023-05-21T07:30:40.791Z,21.80
2023-05-21T07:33:10.316Z,21.26
2023-05-21T07:35:39.525Z,21.23
2023-05-21T07:38:08.582Z,21.19
2023-05-21T07:40:37.790Z,21.31
2023-05-21T07:43:07.181Z,21.31
2023-05-21T07:45:38.363Z,21.67
2023-05-21T07:48:08.395Z,21.53
2023-05-21T07:50:38.152Z,21.85
2023-05-21T07:53:07.744Z,22.11
2023-05-21T07:55:37.896Z,21.92
2023-05-21T08:02:15.498Z,22.54
2023-05-21T08:04:44.950Z,22.30
2023-05-21T08:11:33.477Z,22.98
2023-05-21T08:14:02.582Z,23.16
2023-05-21T08:16:32.075Z,23.21
2023-05-21T08:19:03.080Z,23.53
2023-05-21T08:21:33.344Z,23.26
2023-05-21T08:24:03.143Z,23.29
2023-05-21T08:26:32.550Z,23.57
2023-05-21T08:29:02.174Z,22.91
2023-05-21T08:31:31.472Z,23.04
2023-05-21T08:34:01.974Z,23.32
2023-05-21T08:36:31.887Z,23.39
2023-05-21T08:39:01.493Z,22.79
2023-05-21T08:41:33.148Z,23.05
2023-05-21T08:48:21.725Z,23.09
2023-05-21T08:50:52.778Z,23.65
2023-05-21T08:57:44.616Z,23.67
2023-05-21T09:00:15.247Z,23.56
2023-05-21T09:07:15.597Z,23.43
2023-05-21T09:09:52.879Z,23.87
2023-05-21T09:12:22.182Z,23.86
2023-05-21T09:14:51.893Z,23.97
2023-05-21T09:17:21.491Z,23.61
2023-05-21T09:20:12.586Z,23.82
2023-05-21T09:22:48.165Z,24.15
2023-05-21T09:25:18.466Z,24.35
2023-05-21T09:31:46.598Z,23.62
2023-05-21T09:38:42.102Z,23.33
2023-05-21T09:41:11.402Z,23.56
2023-05-21T09:47:52.864Z,23.36
2023-05-21T09:50:24.055Z,23.31
2023-05-21T09:52:55.807Z,23.64
2023-05-21T09:55:27.652Z,23.51
2023-05-21T09:57:57.071Z,23.28
2023-05-21T10:00:27.808Z,23.78
2023-05-21T10:02:57.768Z,24.10
2023-05-21T10:09:40.556Z,23.45
2023-05-21T10:12:11.597Z,23.85
2023-05-21T10:18:54.984Z,23.87
2023-05-21T10:21:32.339Z,23.87
2023-05-21T10:28:31.559Z,23.10
2023-05-21T10:31:01.099Z,23.25
2023-05-21T10:33:31.985Z,23.54
2023-05-21T10:40:14.235Z,23.31
2023-05-21T10:43:18.550Z,23.32
2023-05-21T10:46:01.542Z,23.47
2023-05-21T10:48:41.009Z,23.66
2023-05-21T10:55:40.847Z,23.57
2023-05-21T10:58:41.501Z,23.37
2023-05-21T11:05:43.783Z,23.52
2023-05-21T11:08:24.560Z,23.84
2023-05-21T11:15:17.947Z,23.68
2023-05-21T11:17:48.493Z,23.75
2023-05-21T11:24:45.017Z,23.73
2023-05-21T11:27:14.849Z,23.49
2023-05-21T11:29:45.425Z,23.37
2023-05-21T11:32:21.009Z,23.45
2023-05-21T11:34:50.619Z,22.82
2023-05-21T11:37:32.820Z,23.18
2023-05-21T11:40:21.669Z,23.57
2023-05-21T11:42:55.499Z,23.36
2023-05-21T11:49:37.512Z,23.73
2023-05-21T11:56:34.779Z,24.71
2023-05-21T11:59:04.593Z,24.78
2023-05-21T12:05:48.157Z,25.41
2023-05-21T12:08:25.813Z,25.87
2023-05-21T12:15:21.808Z,25.57
2023-05-21T12:17:53.487Z,25.65
2023-05-21T12:20:23.164Z,24.83
2023-05-21T12:32:02.021Z,25.52
2023-05-21T12:34:45.061Z,25.14
2023-05-21T12:41:33.147Z,24.65
2023-05-21T12:44:02.927Z,24.36
2023-05-21T12:50:54.679Z,24.56
2023-05-21T12:53:24.105Z,24.93
2023-05-21T12:55:57.174Z,24.57
2023-05-21T13:02:47.954Z,24.93
2023-05-21T13:05:18.938Z,25.46
2023-05-21T13:12:08.032Z,24.95
2023-05-21T13:14:37.747Z,25.36
2023-05-21T13:21:31.638Z,25.54
2023-05-21T13:24:01.336Z,25.24
2023-05-21T13:26:30.741Z,24.92
2023-05-21T13:33:19.677Z,24.25
2023-05-21T13:35:51.681Z,23.99
2023-05-21T13:42:47.661Z,24.26
2023-05-21T13:45:18.806Z,24.95
2023-05-21T13:52:09.402Z,25.55
2023-05-21T13:58:57.865Z,24.85
2023-05-21T14:08:24.147Z,24.18
2023-05-21T14:10:53.690Z,24.09
2023-05-21T14:17:35.882Z,23.76
2023-05-21T14:20:05.418Z,24.25
2023-05-21T14:22:34.788Z,24.49
2023-05-21T14:34:03.292Z,24.79
2023-05-21T14:36:33.014Z,24.76
2023-05-21T14:43:21.588Z,24.18
2023-05-21T14:45:51.204Z,23.98
2023-05-21T14:51:36.482Z,23.91
2023-05-21T14:58:24.256Z,23.87
2023-05-21T15:00:53.537Z,23.97
2023-05-21T15:03:23.045Z,23.84
2023-05-21T15:05:52.340Z,23.85
2023-05-21T15:08:22.969Z,23.60
2023-05-21T15:10:52.519Z,23.26
2023-05-21T15:13:22.281Z,23.46
2023-05-21T15:15:52.116Z,23.83
2023-05-21T15:18:21.296Z,23.85
2023-05-21T15:20:50.904Z,23.85
2023-05-21T15:23:20.615Z,23.68
2023-05-21T15:25:51.956Z,23.71
2023-05-21T15:28:23.344Z,23.90
2023-05-21T15:30:53.014Z,23.90
2023-05-21T15:33:22.312Z,23.49
2023-05-21T15:35:51.623Z,23.32
2023-05-21T15:38:21.017Z,23.13
2023-05-21T15:40:52.061Z,23.06
2023-05-21T15:43:21.252Z,23.25
2023-05-21T15:45:50.550Z,23.07
2023-05-21T15:48:22.982Z,23.15
2023-05-21T15:50:52.223Z,23.60
2023-05-21T15:53:22.133Z,23.65
2023-05-21T15:55:52.559Z,24.22
2023-05-21T15:58:21.862Z,24.04
2023-05-21T16:00:51.068Z,24.41
2023-05-21T16:03:20.413Z,24.68
2023-05-21T16:10:14.455Z,24.09
2023-05-21T16:12:45.600Z,23.92
2023-05-21T16:19:27.244Z,25.76
2023-05-21T16:21:56.717Z,25.38
2023-05-21T16:27:52.454Z,24.57
2023-05-21T16:34:40.413Z,24.31
2023-05-21T16:37:10.322Z,24.47
2023-05-21T16:39:39.627Z,24.81
2023-05-21T16:42:08.737Z,24.83
2023-05-21T16:44:39.687Z,25.59
2023-05-21T16:47:08.860Z,25.13
2023-05-21T16:49:38.046Z,24.77
2023-05-21T16:52:07.860Z,24.53
2023-05-21T16:54:37.052Z,24.83
2023-05-21T16:57:06.254Z,24.69
2023-05-21T16:59:35.854Z,23.82
2023-05-21T17:02:07.569Z,22.90
2023-05-21T17:04:37.232Z,22.34
2023-05-21T17:07:06.921Z,22.22
2023-05-21T17:09:36.139Z,22.14
2023-05-21T17:12:05.633Z,21.99
2023-05-21T17:14:36.247Z,21.93
2023-05-21T17:21:27.708Z,21.81
2023-05-21T17:23:57.009Z,21.61
2023-05-21T17:35:20.424Z,21.29
2023-05-21T17:37:51.150Z,21.21
2023-05-21T17:40:21.693Z,21.04
2023-05-21T17:42:50.565Z,21.02
2023-05-21T17:45:19.465Z,20.96
2023-05-21T17:47:48.880Z,21.00
2023-05-21T17:50:18.156Z,20.85
2023-05-21T17:57:07.140Z,20.81
2023-05-21T17:59:36.539Z,20.70
2023-05-21T18:06:25.521Z,20.47
2023-05-21T18:08:55.354Z,20.49
2023-05-21T18:15:38.298Z,20.23
2023-05-21T18:18:08.258Z,20.14
2023-05-21T18:20:38.180Z,20.09
2023-05-21T18:27:19.715Z,19.87
2023-05-21T18:29:50.039Z,19.91
2023-05-21T18:36:40.456Z,19.75
2023-05-21T18:39:10.585Z,19.64
2023-05-21T18:45:59.375Z,19.15
2023-05-21T18:48:28.547Z,18.94
2023-05-21T18:50:58.465Z,18.96
2023-05-21T18:57:41.302Z,18.93
2023-05-21T19:00:11.919Z,18.91
2023-05-21T19:06:59.279Z,18.77
2023-05-21T19:09:28.379Z,18.66
2023-05-21T19:11:57.887Z,18.45
2023-05-21T19:14:28.816Z,18.37
2023-05-21T19:16:58.122Z,18.38
2023-05-21T19:19:27.976Z,18.24
2023-05-21T19:21:57.428Z,18.12
2023-05-21T19:24:27.346Z,17.91
2023-05-21T19:26:56.745Z,17.88
2023-05-21T19:29:28.803Z,17.55
2023-05-21T19:31:59.646Z,17.29
2023-05-21T19:34:29.050Z,17.02
2023-05-21T19:36:58.370Z,16.86
2023-05-21T19:43:47.052Z,16.74
2023-05-21T19:46:19.746Z,16.56
2023-05-21T19:53:15.956Z,16.20
2023-05-21T19:55:46.385Z,16.03
2023-05-21T20:02:29.023Z,15.67
2023-05-21T20:04:59.427Z,15.93
2023-05-21T20:07:28.739Z,15.97
2023-05-21T20:09:59.278Z,15.81
2023-05-21T20:12:28.668Z,15.46
2023-05-21T20:19:16.811Z,15.15
2023-05-21T20:21:46.239Z,15.21
2023-05-21T20:28:29.177Z,14.73
2023-05-21T20:30:59.433Z,14.77
2023-05-21T20:37:47.878Z,14.70
2023-05-21T20:44:31.015Z,14.40
2023-05-21T20:47:02.053Z,14.29
2023-05-21T20:53:49.627Z,14.07
2023-05-21T21:00:32.038Z,14.16
2023-05-21T21:03:02.429Z,13.89
2023-05-21T21:09:52.781Z,14.07
2023-05-21T21:12:26.545Z,14.02
2023-05-21T21:19:22.161Z,14.06
2023-05-21T21:21:51.530Z,13.85
2023-05-21T21:24:20.512Z,13.68
2023-05-21T21:26:49.816Z,13.45
2023-05-21T21:29:19.015Z,13.33
2023-05-21T21:31:48.632Z,13.31
2023-05-21T21:34:17.616Z,13.37
2023-05-21T21:36:48.242Z,13.44
2023-05-21T21:39:17.730Z,13.60
2023-05-21T21:41:47.365Z,13.51
2023-05-21T21:44:16.545Z,13.43
2023-05-21T21:46:47.283Z,13.60
2023-05-21T21:49:17.665Z,13.47
2023-05-21T21:51:48.844Z,13.16
2023-05-21T21:54:17.836Z,13.10
2023-05-21T22:00:59.480Z,12.99
2023-05-21T22:03:29.058Z,12.85
2023-05-21T22:10:13.331Z,12.78
2023-05-21T22:12:43.057Z,12.71
2023-05-21T22:15:20.245Z,12.59
2023-05-21T22:17:50.472Z,12.33
2023-05-21T22:20:20.152Z,12.35
2023-05-21T22:22:49.558Z,12.36
2023-05-21T22:25:20.393Z,12.43
2023-05-21T22:27:49.379Z,12.48
2023-05-21T22:30:18.787Z,12.43
2023-05-21T22:32:48.734Z,12.45
2023-05-21T22:35:18.101Z,12.27
2023-05-21T22:41:55.123Z,12.21
2023-05-21T22:44:24.712Z,12.18
2023-05-21T22:51:05.911Z,12.10
2023-05-21T22:53:36.030Z,12.07
2023-05-21T22:56:05.532Z,11.93
2023-05-21T22:58:37.093Z,11.85
2023-05-21T23:01:06.901Z,11.74
2023-05-21T23:03:36.094Z,11.68
2023-05-21T23:06:05.491Z,11.65
2023-05-21T23:08:35.199Z,11.72
2023-05-21T23:11:04.702Z,11.69
2023-05-21T23:13:35.435Z,11.68
2023-05-21T23:16:04.760Z,11.55
2023-05-21T23:22:46.653Z,11.78
2023-05-21T23:25:16.060Z,11.65
2023-05-21T23:36:44.189Z,11.21
2023-05-21T23:39:13.586Z,11.08
2023-05-21T23:41:42.986Z,11.17
2023-05-21T23:44:12.904Z,11.19
2023-05-21T23:46:42.097Z,11.18
2023-05-21T23:49:11.990Z,11.09
2023-05-21T23:51:42.943Z,11.04
2023-05-21T23:54:12.351Z,11.17
2023-05-21T23:56:41.540Z,11.52
2023-05-21T23:59:10.542Z,11.31
